Aérodrome :
LOGIN :

S'inscrire | Disclaimer

   EN    FR    IT 

 










Légende :    VFR   VFR Marginal   IFR   IFR Intensif   IFR Très Intensif
Visi : 
Plafond : 
>= 8 km
>= 3000ft
5 à 8 km
1000 à 3000 ft
1500m à 5 km
500 à 1000 ft
800 à 1500m
200 à 500 ft
< 800m
< 200 ft
Symboles :   Orages  Brouillard  Fortes neiges  Fortes précipitations  Vent > 20 kt
SIGMETs :   Divers  Orages  Givrage  Turbulence  Onde Orograph.  Cendres Volcan.






- Altitude de l'aérodrome : 203 ft
- Code IATA : XMJ


LFBM - Mont-De-Marsan

DERNIER METAR :
  • 160600Z AUTO 23005KT 200V260 7000 -RA FEW006/// SCT015/// BKN025/// ///TCU 15/14 Q1009 TEMPO 3000 RA BKN005

METARs EXPIRÉS :
  • 160530Z AUTO 24005KT 200V260 9000 SCT006/// BKN022/// BKN031/// ///TCU 15/14 Q1009 TEMPO 3000 RA BKN005
  • 160500Z AUTO 24005KT 210V270 3800 BR BKN004 BKN011 BKN020 15/14 Q1009 TEMPO RA BKN005
  • 160430Z AUTO 24005KT 5000 +DZ BR BKN006 BKN014 BKN021 15/14 Q1009 TEMPO RA
  • 160400Z AUTO 21004KT 180V240 8000 BKN005 BKN025 BKN032 15/14 Q1008 TEMPO 3000 RA
  • 160330Z AUTO 21004KT 170V270 4800 -RA BR BKN005/// BKN024/// BKN029/// ///TCU 15/14 Q1009 TEMPO RA BKN005

TAF TAF LFBM
Valide du 16 à 03h jusqu'au 17 à 03h UTC


160200Z 1603/1703 24007KT 7000 BKN012
TEMPO 1603/1609 3000 RA BKN005



MET'MAP, la Météo Aéronautique d'un coup d'oeil ! - Copyright ORBIFLY Décembre 2007 - Disclaimer

ORBIFLY MET'MAP TEAM :

Programmation & Développement : Alexandra Zaïnal
Sur une idée originale de : Baudouin d'Aumeries
Assistance à la programmation : Marc-Olivier Méhu
Soutien technique & logistique : Manuel Goepfert

Contact : metmap@orbifly.com




SOURCES & CREDITS :

   NOAA